createdAt,value
2022-07-27T00:04:25.429Z,16.57
2022-07-27T00:09:28.581Z,16.49
2022-07-27T00:14:31.758Z,16.62
2022-07-27T00:19:36.150Z,16.60
2022-07-27T00:24:39.117Z,16.66
2022-07-27T00:29:42.237Z,16.63
2022-07-27T00:34:47.952Z,16.63
2022-07-27T00:39:51.028Z,16.58
2022-07-27T00:44:54.927Z,16.47
2022-07-27T00:49:59.731Z,16.45
2022-07-27T00:55:02.861Z,16.35
2022-07-27T01:00:07.667Z,16.29
2022-07-27T01:05:12.189Z,16.17
2022-07-27T01:10:17.228Z,16.22
2022-07-27T01:15:20.800Z,16.35
2022-07-27T01:20:25.732Z,16.31
2022-07-27T01:25:30.243Z,16.29
2022-07-27T01:30:35.753Z,16.36
2022-07-27T01:35:40.050Z,16.42
2022-07-27T01:40:44.398Z,16.46
2022-07-27T01:45:47.784Z,16.47
2022-07-27T01:50:51.698Z,16.59
2022-07-27T01:55:56.408Z,16.69
2022-07-27T02:00:59.716Z,16.64
2022-07-27T02:06:02.776Z,16.62
2022-07-27T02:11:25.918Z,16.67
2022-07-27T02:16:28.911Z,16.74
2022-07-27T02:21:32.282Z,16.73
2022-07-27T02:26:36.725Z,16.75
2022-07-27T02:31:39.538Z,16.69
2022-07-27T02:36:42.575Z,16.65
2022-07-27T02:41:47.982Z,16.69
2022-07-27T02:46:50.828Z,16.72
2022-07-27T02:51:54.783Z,16.70
2022-07-27T02:57:01.265Z,16.67
2022-07-27T03:02:04.376Z,16.64
2022-07-27T03:07:09.355Z,16.71
2022-07-27T03:12:14.061Z,16.67
2022-07-27T03:17:17.117Z,16.70
2022-07-27T03:22:20.159Z,16.74
2022-07-27T03:27:24.638Z,16.72
2022-07-27T03:32:27.683Z,16.75
2022-07-27T03:37:30.583Z,16.72
2022-07-27T03:42:35.004Z,16.81
2022-07-27T03:47:38.138Z,16.79
2022-07-27T03:52:41.159Z,16.71
2022-07-27T03:57:51.355Z,16.69
2022-07-27T04:02:54.516Z,16.80
2022-07-27T04:07:57.904Z,16.78
2022-07-27T04:13:02.377Z,16.69
2022-07-27T04:18:07.930Z,16.78
2022-07-27T04:23:11.395Z,16.64
2022-07-27T04:28:16.273Z,16.67
2022-07-27T04:33:19.453Z,16.90
2022-07-27T04:38:22.379Z,16.95
2022-07-27T04:43:29.572Z,16.93
2022-07-27T04:48:33.099Z,16.86
2022-07-27T04:53:37.254Z,16.70
2022-07-27T04:58:58.243Z,16.78
2022-07-27T05:04:01.333Z,16.74
2022-07-27T05:09:04.344Z,16.58
2022-07-27T05:14:08.969Z,17.15
2022-07-27T05:19:12.863Z,17.22
2022-07-27T05:24:16.359Z,17.70
2022-07-27T05:29:21.862Z,18.02
2022-07-27T05:34:24.771Z,18.25
2022-07-27T05:39:27.978Z,18.30
2022-07-27T05:44:32.466Z,18.55
2022-07-27T05:49:35.422Z,18.51
2022-07-27T05:54:38.475Z,18.64
2022-07-27T05:59:42.887Z,18.59
2022-07-27T06:04:45.856Z,18.43
2022-07-27T06:09:48.924Z,18.59
2022-07-27T06:14:53.423Z,18.85
2022-07-27T06:19:56.440Z,18.91
2022-07-27T06:24:59.690Z,19.07
2022-07-27T06:30:04.680Z,19.29
2022-07-27T06:35:08.959Z,19.38
2022-07-27T06:40:14.405Z,19.43
2022-07-27T06:45:18.983Z,19.09
2022-07-27T06:50:22.683Z,19.59
2022-07-27T06:55:25.792Z,19.54
2022-07-27T07:00:30.367Z,19.65
2022-07-27T07:05:38.529Z,19.92
2022-07-27T07:10:42.961Z,19.83
2022-07-27T07:15:47.818Z,19.92
2022-07-27T07:20:50.846Z,19.73
2022-07-27T07:25:53.852Z,20.06
2022-07-27T07:30:58.804Z,20.02
2022-07-27T07:36:12.855Z,20.41
2022-07-27T07:41:17.408Z,20.49
2022-07-27T07:46:22.225Z,20.65
2022-07-27T07:51:25.515Z,20.85
2022-07-27T07:56:28.885Z,20.76
2022-07-27T08:01:33.875Z,20.73
2022-07-27T08:06:39.431Z,20.81
2022-07-27T08:11:42.674Z,21.20
2022-07-27T08:16:48.466Z,21.35
2022-07-27T08:21:52.278Z,21.49
2022-07-27T08:26:55.125Z,21.45
2022-07-27T08:31:59.889Z,21.53
2022-07-27T08:37:03.032Z,21.75
2022-07-27T08:42:10.226Z,21.94
2022-07-27T08:47:16.516Z,22.22
2022-07-27T08:52:20.686Z,22.01
2022-07-27T08:57:23.627Z,22.14
2022-07-27T09:02:28.375Z,21.82
2022-07-27T09:07:32.373Z,22.16
2022-07-27T09:12:36.320Z,22.14
2022-07-27T09:17:48.500Z,22.27
2022-07-27T09:22:54.534Z,22.65
2022-07-27T09:27:58.937Z,22.75
2022-07-27T09:33:05.823Z,22.50
2022-07-27T09:38:19.564Z,22.61
2022-07-27T09:48:47.603Z,22.54
2022-07-27T09:53:51.272Z,22.06
2022-07-27T09:58:56.828Z,21.99
2022-07-27T10:04:04.503Z,22.10
2022-07-27T10:09:07.627Z,22.18
2022-07-27T10:14:11.114Z,22.29
2022-07-27T10:19:20.529Z,21.83
2022-07-27T10:24:36.994Z,22.01
2022-07-27T10:29:40.184Z,21.72
2022-07-27T10:34:44.772Z,22.44
2022-07-27T10:39:52.032Z,22.20
2022-07-27T10:44:58.671Z,22.51
2022-07-27T10:50:24.789Z,23.14
2022-07-27T10:55:48.241Z,23.31
2022-07-27T11:00:59.834Z,22.95
2022-07-27T11:06:31.349Z,23.02
2022-07-27T11:11:30.694Z,23.07
2022-07-27T11:16:43.134Z,22.97
2022-07-27T11:21:58.487Z,22.65
2022-07-27T11:27:01.559Z,23.20
2022-07-27T11:32:21.671Z,23.38
2022-07-27T11:37:26.441Z,23.79
2022-07-27T11:42:38.495Z,23.52
2022-07-27T11:47:42.122Z,23.12
2022-07-27T11:53:01.255Z,23.80
2022-07-27T11:58:05.029Z,23.92
2022-07-27T12:03:08.805Z,23.35
2022-07-27T12:08:13.930Z,22.91
2022-07-27T12:13:19.517Z,22.67
2022-07-27T12:18:22.535Z,22.71
2022-07-27T12:23:30.969Z,22.71
2022-07-27T12:28:34.121Z,22.77
2022-07-27T12:33:38.157Z,22.76
2022-07-27T12:38:44.367Z,23.23
2022-07-27T12:44:04.998Z,23.21
2022-07-27T12:49:16.696Z,23.50
2022-07-27T12:54:21.642Z,23.57
2022-07-27T12:59:24.866Z,23.72
2022-07-27T13:04:27.782Z,23.49
2022-07-27T13:10:02.678Z,23.86
2022-07-27T13:14:55.464Z,23.68
2022-07-27T13:19:58.474Z,23.85
2022-07-27T13:25:03.056Z,23.99
2022-07-27T13:30:19.961Z,23.97
2022-07-27T13:35:23.176Z,23.92
2022-07-27T13:40:27.650Z,24.16
2022-07-27T13:45:31.322Z,23.68
2022-07-27T13:50:46.278Z,23.54
2022-07-27T13:55:50.795Z,23.57
2022-07-27T14:00:54.447Z,23.65
2022-07-27T14:05:57.542Z,23.67
2022-07-27T14:11:02.592Z,23.91
2022-07-27T14:16:08.434Z,23.95
2022-07-27T14:21:12.711Z,24.44
2022-07-27T14:26:18.021Z,24.41
2022-07-27T14:31:21.911Z,24.64
2022-07-27T14:36:24.791Z,23.82
2022-07-27T14:41:29.487Z,23.32
2022-07-27T14:46:32.897Z,23.76
2022-07-27T14:51:36.251Z,24.06
2022-07-27T14:56:40.958Z,24.19
2022-07-27T15:01:44.163Z,23.89
2022-07-27T15:06:47.115Z,24.14
2022-07-27T15:11:51.591Z,24.04
2022-07-27T15:16:55.389Z,24.05
2022-07-27T15:21:58.488Z,23.68
2022-07-27T15:27:03.370Z,23.68
2022-07-27T15:32:07.344Z,23.43
2022-07-27T15:37:10.436Z,23.43
2022-07-27T15:42:15.013Z,23.13
2022-07-27T15:47:18.448Z,23.10
2022-07-27T15:52:21.472Z,23.02
2022-07-27T15:57:25.984Z,22.93
2022-07-27T16:02:29.300Z,22.81
2022-07-27T16:07:41.462Z,22.84
2022-07-27T16:12:46.361Z,22.73
2022-07-27T16:17:49.404Z,22.61
2022-07-27T16:22:52.403Z,22.65
2022-07-27T16:27:56.852Z,22.61
2022-07-27T16:33:00.406Z,22.76
2022-07-27T16:38:03.428Z,23.65
2022-07-27T16:43:08.069Z,24.62
2022-07-27T16:48:12.703Z,24.79
2022-07-27T16:53:16.245Z,25.14
2022-07-27T16:58:20.930Z,25.03
2022-07-27T17:03:23.960Z,24.86
2022-07-27T17:08:27.808Z,24.53
2022-07-27T17:13:34.110Z,24.01
2022-07-27T17:18:40.549Z,23.71
2022-07-27T17:23:44.190Z,23.15
2022-07-27T17:28:48.726Z,23.00
2022-07-27T17:33:52.909Z,22.81
2022-07-27T17:38:56.372Z,22.61
2022-07-27T17:44:01.389Z,22.36
2022-07-27T17:49:04.473Z,22.08
2022-07-27T17:54:08.024Z,21.82
2022-07-27T17:59:36.173Z,21.60
2022-07-27T18:04:39.234Z,21.38
2022-07-27T18:09:42.953Z,21.22
2022-07-27T18:15:06.357Z,21.23
2022-07-27T18:20:11.267Z,21.06
2022-07-27T18:25:14.221Z,20.98
2022-07-27T18:30:19.043Z,20.83
2022-07-27T18:35:22.174Z,20.59
2022-07-27T18:40:25.668Z,20.44
2022-07-27T18:45:34.159Z,20.37
2022-07-27T18:50:39.624Z,20.22
2022-07-27T18:55:43.229Z,20.12
2022-07-27T19:00:47.679Z,19.92
2022-07-27T19:05:50.885Z,19.73
2022-07-27T19:10:55.817Z,19.56
2022-07-27T19:16:01.164Z,19.45
2022-07-27T19:21:04.634Z,19.27
2022-07-27T19:26:07.681Z,19.17
2022-07-27T19:31:22.366Z,19.02
2022-07-27T19:36:26.916Z,18.76
2022-07-27T19:41:30.008Z,18.59
2022-07-27T19:46:34.733Z,18.54
2022-07-27T19:51:38.406Z,18.40
2022-07-27T19:56:41.364Z,18.28
2022-07-27T20:01:46.307Z,18.11
2022-07-27T20:06:49.377Z,18.06
2022-07-27T20:11:56.850Z,18.22
2022-07-27T20:17:05.022Z,18.40
2022-07-27T20:22:08.401Z,18.46
2022-07-27T20:27:12.076Z,18.40
2022-07-27T20:32:16.908Z,18.51
2022-07-27T20:37:19.964Z,18.40
2022-07-27T20:42:23.375Z,18.28
2022-07-27T20:47:34.050Z,18.36
2022-07-27T20:52:37.885Z,18.33
2022-07-27T20:57:40.946Z,18.33
2022-07-27T21:02:45.617Z,18.33
2022-07-27T21:07:48.737Z,18.27
2022-07-27T21:12:52.005Z,18.19
2022-07-27T21:17:56.620Z,18.11
2022-07-27T21:23:18.311Z,18.11
2022-07-27T21:28:21.093Z,18.14
2022-07-27T21:33:29.378Z,18.10
2022-07-27T21:38:32.394Z,18.08
2022-07-27T21:43:35.619Z,18.08
2022-07-27T21:48:39.995Z,18.08
2022-07-27T21:53:43.619Z,18.05
2022-07-27T21:58:48.243Z,18.05
2022-07-27T22:03:53.199Z,18.04
2022-07-27T22:08:56.361Z,18.04
2022-07-27T22:13:59.729Z,17.92
2022-07-27T22:19:04.166Z,17.92
2022-07-27T22:24:07.581Z,17.83
2022-07-27T22:29:10.538Z,17.67
2022-07-27T22:34:15.396Z,17.66
2022-07-27T22:39:20.076Z,17.46
2022-07-27T22:44:23.035Z,17.38
2022-07-27T22:49:27.507Z,17.34
2022-07-27T22:54:33.501Z,17.39
2022-07-27T22:59:37.748Z,17.36
2022-07-27T23:04:42.662Z,17.37
2022-07-27T23:09:46.005Z,17.38
2022-07-27T23:14:49.219Z,17.31
2022-07-27T23:19:53.974Z,17.16
2022-07-27T23:24:57.024Z,17.16
2022-07-27T23:30:00.061Z,17.03
2022-07-27T23:35:04.986Z,16.77
2022-07-27T23:40:08.835Z,16.66
2022-07-27T23:45:12.505Z,16.45
2022-07-27T23:50:17.567Z,16.24
2022-07-27T23:55:20.714Z,16.19
